createdAt,value
2018-02-08T00:00:45.267Z,64.22
2018-02-08T00:03:12.706Z,62.67
2018-02-08T00:05:40.131Z,61.83
2018-02-08T00:08:07.579Z,61.45
2018-02-08T00:10:35.015Z,62.67
2018-02-08T00:13:02.442Z,60.47
2018-02-08T00:15:29.894Z,61.25
2018-02-08T00:17:57.318Z,62.42
2018-02-08T00:20:24.742Z,66.30
2018-02-08T00:22:52.190Z,64.37
2018-02-08T00:25:19.627Z,63.50
2018-02-08T00:27:47.053Z,65.90
2018-02-08T00:30:14.494Z,66.95
2018-02-08T00:32:41.923Z,66.05
2018-02-08T00:35:09.375Z,61.45
2018-02-08T00:37:36.792Z,66.65
2018-02-08T00:40:04.222Z,63.83
2018-02-08T00:42:31.688Z,66.78
2018-02-08T00:44:59.123Z,65.78
2018-02-08T00:47:26.549Z,62.78
2018-02-08T00:49:53.994Z,61.17
2018-02-08T00:52:21.428Z,64.70
2018-02-08T00:54:48.846Z,67.28
2018-02-08T00:57:16.297Z,64.95
2018-02-08T00:59:43.726Z,64.68
2018-02-08T01:02:11.155Z,66.90
2018-02-08T01:04:38.599Z,68.65
2018-02-08T01:07:06.029Z,69.25
2018-02-08T01:09:33.467Z,65.85
2018-02-08T01:12:00.897Z,68.43
2018-02-08T01:14:28.325Z,69.68
2018-02-08T01:16:55.760Z,67.03
2018-02-08T01:19:23.214Z,64.37
2018-02-08T01:21:50.641Z,64.97
2018-02-08T01:24:18.083Z,66.55
2018-02-08T01:26:45.526Z,68.57
2018-02-08T01:29:12.978Z,68.82
2018-02-08T01:31:40.423Z,65.05
2018-02-08T01:34:07.850Z,66.87
2018-02-08T01:36:35.276Z,71.10
2018-02-08T01:39:02.714Z,64.50
2018-02-08T01:41:30.175Z,68.15
2018-02-08T01:43:57.607Z,72.57
2018-02-08T01:46:25.055Z,68.97
2018-02-08T01:48:52.522Z,63.75
2018-02-08T01:51:19.950Z,73.28
2018-02-08T01:53:47.385Z,67.45
2018-02-08T01:56:14.824Z,66.03
2018-02-08T01:58:42.248Z,68.37
2018-02-08T02:01:09.699Z,65.28
2018-02-08T02:03:37.127Z,70.90
2018-02-08T02:06:04.554Z,72.22
2018-02-08T02:08:31.999Z,71.55
2018-02-08T02:10:59.418Z,73.37
2018-02-08T02:13:26.851Z,71.80
2018-02-08T02:15:54.282Z,70.40
2018-02-08T02:18:21.714Z,69.70
2018-02-08T02:20:49.154Z,69.95
2018-02-08T02:23:16.574Z,74.20
2018-02-08T02:25:44.006Z,74.82
2018-02-08T02:28:11.455Z,75.32
2018-02-08T02:30:38.882Z,74.05
2018-02-08T02:33:06.317Z,71.78
2018-02-08T02:35:33.755Z,76.25
2018-02-08T02:38:01.178Z,76.55
2018-02-08T02:40:28.619Z,76.40
2018-02-08T02:42:56.046Z,76.07
2018-02-08T02:45:23.478Z,69.72
2018-02-08T02:47:50.922Z,74.87
2018-02-08T02:50:18.354Z,75.60
2018-02-08T02:52:45.787Z,77.37
2018-02-08T02:55:13.227Z,68.75
2018-02-08T02:57:40.939Z,72.60
2018-02-08T03:00:08.358Z,69.35
2018-02-08T03:02:35.794Z,72.47
2018-02-08T03:05:03.221Z,72.62
2018-02-08T03:07:30.666Z,77.32
2018-02-08T03:09:58.098Z,77.57
2018-02-08T03:12:25.534Z,76.62
2018-02-08T03:14:52.958Z,76.75
2018-02-08T03:17:20.404Z,74.90
2018-02-08T03:19:47.829Z,76.12
2018-02-08T03:22:15.263Z,76.37
2018-02-08T03:24:42.694Z,76.43
2018-02-08T03:27:10.137Z,76.53
2018-02-08T03:29:37.613Z,76.75
2018-02-08T03:32:05.021Z,74.35
2018-02-08T03:34:32.447Z,76.40
2018-02-08T03:36:59.870Z,84.20
2018-02-08T03:39:27.317Z,73.97
2018-02-08T03:41:54.742Z,79.10
2018-02-08T03:44:22.171Z,76.07
2018-02-08T03:46:49.610Z,77.93
2018-02-08T03:49:17.046Z,72.82
2018-02-08T03:51:44.474Z,79.68
2018-02-08T03:54:11.914Z,75.75
2018-02-08T03:56:39.343Z,78.45
2018-02-08T03:59:06.779Z,78.03
2018-02-08T04:01:34.226Z,79.22
2018-02-08T04:04:01.668Z,75.57
2018-02-08T04:06:29.100Z,76.50
2018-02-08T04:08:56.542Z,79.28
2018-02-08T04:11:23.969Z,79.93
2018-02-08T04:13:51.394Z,80.32
2018-02-08T04:16:18.837Z,75.60
2018-02-08T04:18:46.260Z,77.07
2018-02-08T04:21:13.696Z,79.22
2018-02-08T04:23:41.135Z,76.72
2018-02-08T04:26:08.562Z,76.03
2018-02-08T04:28:35.996Z,75.70
2018-02-08T04:31:03.434Z,77.37
2018-02-08T04:33:30.863Z,78.22
2018-02-08T04:35:58.295Z,71.47
2018-02-08T04:38:37.537Z,82.47
2018-02-08T04:54:35.064Z,86.68
2018-02-08T04:57:02.494Z,84.43
2018-02-08T04:59:29.923Z,82.57
2018-02-08T05:02:00.096Z,84.95
2018-02-08T05:04:27.530Z,85.43
2018-02-08T05:06:54.962Z,85.38
2018-02-08T05:09:22.444Z,82.50
2018-02-08T05:11:49.828Z,85.57
2018-02-08T05:14:17.250Z,88.87
2018-02-08T05:16:44.702Z,87.93
2018-02-08T05:19:12.126Z,87.55
2018-02-08T05:21:39.550Z,89.60
2018-02-08T05:24:06.998Z,86.80
2018-02-08T05:26:34.429Z,86.55
2018-02-08T05:29:01.862Z,85.85
2018-02-08T05:31:29.309Z,89.20
2018-02-08T05:33:56.749Z,87.32
2018-02-08T05:36:24.170Z,87.45
2018-02-08T05:38:51.610Z,88.00
2018-02-08T05:41:19.047Z,91.07
2018-02-08T05:43:46.475Z,87.55
2018-02-08T05:46:13.918Z,87.40
2018-02-08T05:48:41.351Z,85.85
2018-02-08T05:51:08.774Z,90.05
2018-02-08T05:53:36.219Z,92.20
2018-02-08T05:56:03.655Z,87.22
2018-02-08T05:58:31.078Z,88.18
2018-02-08T06:00:58.518Z,91.78
2018-02-08T06:03:25.956Z,88.43
2018-02-08T06:05:53.391Z,88.05
2018-02-08T06:08:20.856Z,89.65
2018-02-08T06:10:48.277Z,90.82
2018-02-08T06:13:15.716Z,89.60
2018-02-08T06:15:43.159Z,86.90
2018-02-08T06:18:10.598Z,94.72
2018-02-08T06:20:38.023Z,92.78
2018-02-08T06:23:05.471Z,91.80
2018-02-08T06:25:32.890Z,93.68
2018-02-08T06:28:00.306Z,89.95
2018-02-08T06:30:27.745Z,87.47
2018-02-08T06:32:55.190Z,86.63
2018-02-08T06:35:22.616Z,93.00
2018-02-08T06:37:50.042Z,87.12
2018-02-08T06:40:17.479Z,90.95
2018-02-08T06:42:44.898Z,91.57
2018-02-08T06:45:12.331Z,88.95
2018-02-08T06:47:39.830Z,89.70
2018-02-08T06:50:07.226Z,88.70
2018-02-08T06:52:34.643Z,93.80
2018-02-08T06:55:02.087Z,88.22
2018-02-08T06:57:29.523Z,91.15
2018-02-08T06:59:56.954Z,95.43
2018-02-08T07:02:24.390Z,94.25
2018-02-08T07:04:51.824Z,91.28
2018-02-08T07:07:19.255Z,93.12
2018-02-08T07:09:46.695Z,93.40
2018-02-08T07:12:14.127Z,98.28
2018-02-08T07:14:41.558Z,94.62
2018-02-08T07:17:09.016Z,93.68
2018-02-08T07:19:36.440Z,94.78
2018-02-08T07:22:03.874Z,89.68
2018-02-08T07:24:31.315Z,99.32
2018-02-08T07:26:58.757Z,97.75
2018-02-08T07:29:26.176Z,92.15
2018-02-08T07:31:53.622Z,95.93
2018-02-08T07:34:21.050Z,93.82
2018-02-08T07:36:48.478Z,93.95
2018-02-08T07:39:15.924Z,98.55
2018-02-08T07:41:43.345Z,92.03
2018-02-08T07:44:10.808Z,93.50
2018-02-08T07:46:38.249Z,94.80
2018-02-08T07:49:05.687Z,91.47
2018-02-08T07:51:33.118Z,91.60
2018-02-08T07:54:00.528Z,92.25
2018-02-08T07:56:27.991Z,94.65
2018-02-08T07:58:55.422Z,94.22
2018-02-08T08:01:22.862Z,89.53
2018-02-08T08:03:50.330Z,94.00
2018-02-08T08:06:17.731Z,93.60
2018-02-08T08:08:45.178Z,95.18
2018-02-08T08:11:12.622Z,90.93
2018-02-08T08:13:40.042Z,97.00
2018-02-08T08:16:07.472Z,95.25
2018-02-08T08:18:34.919Z,97.00
2018-02-08T08:21:02.346Z,89.68
2018-02-08T08:23:29.774Z,90.90
2018-02-08T08:25:57.222Z,94.00
2018-02-08T08:28:24.659Z,92.62
2018-02-08T08:30:52.082Z,91.97
2018-02-08T08:33:19.522Z,89.35
2018-02-08T08:35:46.950Z,97.68
2018-02-08T08:38:14.381Z,95.70
2018-02-08T08:40:41.826Z,96.82
2018-02-08T08:43:09.259Z,90.15
2018-02-08T08:45:36.722Z,97.50
2018-02-08T08:48:04.171Z,96.75
2018-02-08T08:50:31.601Z,92.12
2018-02-08T08:52:59.030Z,94.07
2018-02-08T08:55:26.474Z,88.00
2018-02-08T08:57:53.944Z,93.18
2018-02-08T09:00:21.357Z,94.45
2018-02-08T09:02:48.794Z,96.22
2018-02-08T09:05:16.227Z,91.05
2018-02-08T09:07:43.651Z,95.47
2018-02-08T09:10:11.095Z,95.87
2018-02-08T09:12:38.534Z,88.47
2018-02-08T09:15:05.954Z,92.03
2018-02-08T09:17:33.379Z,89.60
2018-02-08T09:20:00.818Z,92.65
2018-02-08T09:22:28.246Z,91.12
2018-02-08T09:24:55.679Z,89.65
2018-02-08T09:27:23.115Z,93.75
2018-02-08T09:29:50.539Z,92.47
2018-02-08T09:32:17.966Z,90.62
2018-02-08T09:34:45.406Z,94.15
2018-02-08T09:37:12.834Z,89.85
2018-02-08T09:39:40.264Z,90.20
2018-02-08T09:42:07.709Z,93.90
2018-02-08T09:44:35.145Z,90.75
2018-02-08T09:47:02.574Z,95.28
2018-02-08T09:49:30.015Z,86.70
2018-02-08T09:51:57.440Z,92.20
2018-02-08T09:54:24.862Z,91.63
2018-02-08T09:56:52.315Z,90.45
2018-02-08T09:59:19.746Z,90.10
2018-02-08T10:01:47.175Z,96.82
2018-02-08T10:04:14.624Z,93.75
2018-02-08T10:06:42.056Z,88.93
2018-02-08T10:09:09.488Z,87.93
2018-02-08T10:11:36.935Z,94.03
2018-02-08T10:14:04.376Z,93.72
2018-02-08T10:16:31.805Z,96.55
2018-02-08T10:18:59.276Z,93.03
2018-02-08T10:21:26.695Z,88.25
2018-02-08T10:23:54.198Z,86.80
2018-02-08T10:26:21.632Z,91.40
2018-02-08T10:28:49.064Z,92.03
2018-02-08T10:31:16.491Z,92.32
2018-02-08T10:33:43.930Z,91.93
2018-02-08T10:36:11.363Z,94.07
2018-02-08T10:38:38.800Z,94.03
2018-02-08T10:41:06.248Z,89.18
2018-02-08T10:43:33.682Z,90.35
2018-02-08T10:46:01.116Z,91.12
2018-02-08T10:48:28.564Z,94.40
2018-02-08T10:50:55.995Z,95.50
2018-02-08T10:53:23.430Z,96.55
2018-02-08T10:55:50.892Z,89.70
2018-02-08T10:58:18.324Z,91.95
2018-02-08T11:00:45.769Z,94.22
2018-02-08T11:03:13.226Z,101.30
2018-02-08T11:05:40.646Z,94.32
2018-02-08T11:08:08.074Z,91.75
2018-02-08T11:10:35.531Z,93.12
2018-02-08T11:13:02.947Z,97.22
2018-02-08T11:15:30.374Z,93.37
2018-02-08T11:17:57.814Z,93.50
2018-02-08T11:20:25.246Z,93.57
2018-02-08T11:22:52.683Z,93.87
2018-02-08T11:25:20.122Z,90.82
2018-02-08T11:27:47.562Z,91.32
2018-02-08T11:30:15.035Z,90.65
2018-02-08T11:32:42.565Z,94.60
2018-02-08T11:35:09.987Z,93.75
2018-02-08T11:37:37.425Z,94.00
2018-02-08T11:40:04.901Z,96.10
2018-02-08T11:42:32.421Z,101.75
2018-02-08T11:44:59.901Z,95.20
2018-02-08T11:47:27.415Z,95.15
2018-02-08T11:49:54.835Z,89.68
2018-02-08T11:52:22.270Z,91.95
2018-02-08T11:54:49.718Z,91.90
2018-02-08T11:57:17.154Z,88.55
2018-02-08T11:59:44.574Z,98.72
2018-02-08T12:02:12.014Z,92.07
2018-02-08T12:04:39.446Z,90.20
2018-02-08T12:07:06.882Z,91.18
2018-02-08T12:09:34.330Z,92.90
2018-02-08T12:12:01.763Z,97.18
2018-02-08T12:14:29.191Z,96.63
2018-02-08T12:16:56.650Z,91.68
2018-02-08T12:19:24.091Z,90.57
2018-02-08T12:21:51.514Z,93.25
2018-02-08T12:24:18.961Z,95.53
2018-02-08T12:26:46.389Z,91.60
2018-02-08T12:29:13.823Z,97.12
2018-02-08T12:31:41.257Z,95.30
2018-02-08T12:34:08.695Z,94.82
2018-02-08T12:36:36.127Z,96.53
2018-02-08T12:39:03.578Z,96.78
2018-02-08T12:41:31.005Z,98.40
2018-02-08T12:43:58.438Z,97.30
2018-02-08T12:46:25.914Z,94.10
2018-02-08T12:48:53.354Z,88.87
2018-02-08T12:51:20.791Z,91.07
2018-02-08T12:53:48.250Z,100.62
2018-02-08T12:56:15.679Z,92.47
2018-02-08T12:58:43.119Z,90.87
2018-02-08T13:01:10.567Z,93.10
2018-02-08T13:03:38.007Z,92.85
2018-02-08T13:06:05.442Z,93.20
2018-02-08T13:08:32.899Z,90.38
2018-02-08T13:11:00.344Z,93.12
2018-02-08T13:13:28.142Z,98.55
2018-02-08T13:15:55.581Z,96.25
2018-02-08T13:18:23.027Z,89.13
2018-02-08T13:20:50.475Z,100.72
2018-02-08T13:23:17.955Z,100.78
2018-02-08T13:25:45.413Z,97.72
2018-02-08T13:28:12.842Z,94.87
2018-02-08T13:30:40.302Z,91.93
2018-02-08T13:33:07.734Z,92.15
2018-02-08T13:35:35.174Z,97.20
2018-02-08T13:38:02.622Z,92.72
2018-02-08T13:40:36.092Z,97.50
2018-02-08T13:43:03.541Z,96.40
2018-02-08T13:45:32.046Z,96.03
2018-02-08T14:01:34.847Z,96.45
2018-02-08T14:04:02.294Z,94.30
2018-02-08T14:06:29.726Z,103.45
2018-02-08T14:08:57.174Z,102.75
2018-02-08T14:11:24.614Z,93.22
2018-02-08T14:13:52.042Z,95.65
2018-02-08T14:16:19.498Z,97.30
2018-02-08T14:18:46.936Z,96.80
2018-02-08T14:21:14.374Z,101.03
2018-02-08T14:23:41.829Z,100.50
2018-02-08T14:26:09.313Z,94.78
2018-02-08T14:28:36.734Z,97.50
2018-02-08T14:31:04.181Z,93.55
2018-02-08T14:33:31.621Z,102.53
2018-02-08T14:35:59.071Z,96.60
2018-02-08T14:38:26.523Z,98.68
2018-02-08T14:40:53.953Z,94.97
2018-02-08T14:43:21.395Z,94.90
2018-02-08T14:45:48.855Z,92.70
2018-02-08T14:48:16.282Z,93.68
2018-02-08T14:50:43.722Z,100.53
2018-02-08T14:53:11.171Z,98.05
2018-02-08T14:55:38.608Z,100.30
2018-02-08T14:58:06.042Z,97.55
2018-02-08T15:00:33.527Z,102.10
2018-02-08T15:03:00.963Z,103.53
2018-02-08T15:05:28.401Z,99.82
2018-02-08T15:07:55.848Z,98.95
2018-02-08T15:10:23.362Z,96.05
2018-02-08T15:12:50.806Z,97.95
2018-02-08T15:15:18.255Z,98.93
2018-02-08T15:17:45.694Z,99.30
2018-02-08T15:20:13.125Z,103.68
2018-02-08T15:22:40.573Z,97.82
2018-02-08T15:25:08.002Z,102.57
2018-02-08T15:27:35.439Z,100.18
2018-02-08T15:30:02.887Z,99.55
2018-02-08T15:32:30.373Z,105.10
2018-02-08T15:34:57.814Z,100.32
2018-02-08T15:37:25.266Z,101.30
2018-02-08T15:39:52.694Z,99.07
2018-02-08T15:42:20.127Z,99.95
2018-02-08T15:44:47.583Z,103.18
2018-02-08T15:47:15.014Z,98.95
2018-02-08T15:49:42.454Z,99.53
2018-02-08T15:52:09.902Z,96.00
2018-02-08T15:54:37.338Z,100.05
2018-02-08T15:57:04.762Z,94.28
2018-02-08T15:59:32.214Z,98.45
2018-02-08T16:01:59.643Z,98.40
2018-02-08T16:04:27.069Z,102.93
2018-02-08T16:06:54.524Z,101.28
2018-02-08T16:09:21.957Z,98.65
2018-02-08T16:11:49.404Z,103.20
2018-02-08T16:14:17.020Z,101.78
2018-02-08T16:16:44.860Z,104.82
2018-02-08T16:19:12.297Z,105.53
2018-02-08T16:21:39.746Z,104.53
2018-02-08T16:24:07.239Z,103.60
2018-02-08T16:26:34.670Z,102.57
2018-02-08T16:29:02.116Z,100.70
2018-02-08T16:31:29.566Z,100.28
2018-02-08T16:33:57.014Z,100.93
2018-02-08T16:36:24.450Z,101.78
2018-02-08T16:38:51.903Z,100.55
2018-02-08T16:41:19.339Z,105.43
2018-02-08T16:43:46.774Z,105.82
2018-02-08T16:46:14.240Z,110.50
2018-02-08T16:48:41.674Z,107.80
2018-02-08T16:51:09.122Z,109.82
2018-02-08T16:53:36.574Z,107.22
2018-02-08T16:56:04.011Z,111.30
2018-02-08T16:58:31.455Z,108.65
2018-02-08T17:00:58.950Z,109.65
2018-02-08T17:03:26.639Z,116.18
2018-02-08T17:05:54.130Z,110.88
2018-02-08T17:08:21.597Z,108.87
2018-02-08T17:10:49.050Z,107.60
2018-02-08T17:13:16.633Z,110.07
2018-02-08T17:15:44.615Z,109.28
2018-02-08T17:18:12.429Z,107.93
2018-02-08T17:20:39.976Z,112.43
2018-02-08T17:23:07.577Z,108.87
2018-02-08T17:25:35.294Z,106.50
2018-02-08T17:28:03.006Z,113.10
2018-02-08T17:30:30.784Z,106.72
2018-02-08T17:32:58.636Z,108.55
2018-02-08T17:35:26.568Z,108.95
2018-02-08T17:37:54.373Z,106.87
2018-02-08T17:40:22.579Z,102.87
2018-02-08T17:42:50.169Z,105.78
2018-02-08T17:45:18.083Z,104.47
2018-02-08T17:47:46.110Z,101.28
2018-02-08T17:50:13.802Z,105.15
2018-02-08T17:52:41.874Z,100.40
2018-02-08T17:55:09.716Z,101.82
2018-02-08T17:57:37.658Z,101.85
2018-02-08T18:00:05.794Z,95.50
2018-02-08T18:02:33.930Z,98.82
2018-02-08T18:05:02.123Z,96.35
2018-02-08T18:07:30.731Z,98.50
2018-02-08T18:09:59.026Z,97.28
2018-02-08T18:12:27.202Z,95.25
2018-02-08T18:14:55.610Z,99.47
2018-02-08T18:17:23.959Z,101.85
2018-02-08T18:19:52.360Z,102.87
2018-02-08T18:22:20.662Z,98.75
2018-02-08T18:24:49.030Z,93.53
2018-02-08T18:27:17.428Z,97.95
2018-02-08T18:29:45.879Z,96.37
2018-02-08T18:32:14.283Z,102.53
2018-02-08T18:34:42.661Z,102.68
2018-02-08T18:37:11.077Z,97.72
2018-02-08T18:39:39.378Z,100.78
2018-02-08T18:42:08.014Z,106.30
2018-02-08T18:44:36.657Z,104.20
2018-02-08T18:47:05.041Z,108.85
2018-02-08T18:49:33.486Z,104.50
2018-02-08T18:52:01.833Z,101.78
2018-02-08T18:54:30.196Z,104.22
2018-02-08T18:56:58.656Z,97.32
2018-02-08T18:59:27.052Z,104.90
2018-02-08T19:01:55.428Z,102.20
2018-02-08T19:04:23.886Z,101.22
2018-02-08T19:06:52.350Z,103.32
2018-02-08T19:09:22.383Z,99.62
2018-02-08T19:11:50.873Z,104.07
2018-02-08T19:14:19.265Z,104.63
2018-02-08T19:16:47.764Z,107.68
2018-02-08T19:19:16.237Z,105.03
2018-02-08T19:21:44.609Z,107.60
2018-02-08T19:24:12.999Z,99.72
2018-02-08T19:26:41.614Z,98.47
2018-02-08T19:29:09.998Z,101.70
2018-02-08T19:31:38.385Z,101.97
2018-02-08T19:34:06.881Z,101.85
2018-02-08T19:36:35.236Z,99.90
2018-02-08T19:39:03.734Z,100.10
2018-02-08T19:41:32.248Z,106.30
2018-02-08T19:44:00.615Z,102.25
2018-02-08T19:46:28.994Z,102.28
2018-02-08T19:48:57.472Z,102.30
2018-02-08T19:51:25.870Z,100.00
2018-02-08T19:53:54.411Z,98.87
2018-02-08T19:56:22.944Z,105.60
2018-02-08T19:58:51.439Z,98.68
2018-02-08T20:01:19.804Z,103.90
2018-02-08T20:03:48.277Z,101.78
2018-02-08T20:06:17.553Z,104.20
2018-02-08T20:08:46.040Z,100.18
2018-02-08T20:11:14.473Z,103.72
2018-02-08T20:13:42.875Z,108.72
2018-02-08T20:16:11.264Z,103.53
2018-02-08T20:18:39.742Z,102.00
2018-02-08T20:21:08.112Z,106.37
2018-02-08T20:23:36.480Z,107.50
2018-02-08T20:26:04.897Z,102.53
2018-02-08T20:28:33.293Z,98.55
2018-02-08T20:31:07.230Z,102.53
2018-02-08T20:33:35.637Z,101.78
2018-02-08T20:36:03.977Z,98.87
2018-02-08T20:38:32.444Z,98.82
2018-02-08T20:41:00.800Z,102.28
2018-02-08T20:43:32.871Z,101.90
2018-02-08T20:46:01.237Z,102.05
2018-02-08T20:48:29.963Z,101.22
2018-02-08T20:50:58.465Z,100.50
2018-02-08T20:53:26.945Z,103.45
2018-02-08T20:55:56.508Z,98.30
2018-02-08T20:58:25.556Z,101.50
2018-02-08T21:00:54.054Z,100.03
2018-02-08T21:03:22.449Z,103.68
2018-02-08T21:05:50.917Z,101.32
2018-02-08T21:08:19.241Z,100.72
2018-02-08T21:10:48.394Z,99.13
2018-02-08T21:13:17.019Z,92.55
2018-02-08T21:15:45.411Z,99.82
2018-02-08T21:18:13.785Z,103.78
2018-02-08T21:20:42.321Z,94.32
2018-02-08T21:23:10.696Z,96.75
2018-02-08T21:25:39.022Z,101.62
2018-02-08T21:28:07.488Z,98.00
2018-02-08T21:30:35.839Z,100.30
2018-02-08T21:33:04.186Z,98.00
2018-02-08T21:35:32.629Z,95.57
2018-02-08T21:38:00.970Z,99.30
2018-02-08T21:40:29.360Z,98.00
2018-02-08T21:42:57.834Z,103.15
2018-02-08T21:45:26.174Z,99.03
2018-02-08T21:47:54.483Z,95.97
2018-02-08T21:50:22.833Z,101.85
2018-02-08T21:52:51.103Z,100.72
2018-02-08T21:55:19.560Z,94.30
2018-02-08T21:57:47.988Z,92.25
2018-02-08T22:00:16.245Z,95.07
2018-02-08T22:02:44.229Z,93.25
2018-02-08T22:05:12.221Z,90.93
2018-02-08T22:07:40.172Z,88.68
2018-02-08T22:10:07.884Z,95.68
2018-02-08T22:12:35.504Z,87.15
2018-02-08T22:15:02.991Z,93.12
2018-02-08T22:17:30.452Z,77.72
2018-02-08T22:19:57.925Z,80.32
2018-02-08T22:22:25.427Z,72.85
2018-02-08T22:24:52.890Z,76.53
2018-02-08T22:27:20.355Z,73.78
2018-02-08T22:29:47.785Z,74.12
2018-02-08T22:32:15.229Z,82.25
2018-02-08T22:34:42.667Z,81.20
2018-02-08T22:37:10.111Z,80.38
2018-02-08T22:39:37.538Z,79.75
2018-02-08T22:42:04.975Z,80.87
2018-02-08T22:44:32.451Z,81.53
2018-02-08T22:46:59.887Z,80.00
2018-02-08T22:49:27.310Z,84.25
2018-02-08T22:51:54.745Z,81.63
2018-02-08T22:54:22.182Z,85.38
2018-02-08T22:56:49.637Z,82.55
2018-02-08T22:59:17.082Z,84.53
2018-02-08T23:01:44.516Z,86.55
2018-02-08T23:04:11.942Z,88.05
2018-02-08T23:06:39.384Z,92.25
2018-02-08T23:09:06.814Z,94.80
2018-02-08T23:11:34.247Z,100.65
2018-02-08T23:14:01.694Z,99.68
2018-02-08T23:16:29.138Z,100.15
2018-02-08T23:18:56.574Z,97.55
2018-02-08T23:21:24.030Z,98.70
2018-02-08T23:23:51.494Z,104.95
2018-02-08T23:26:18.932Z,106.80
2018-02-08T23:28:46.350Z,105.93
2018-02-08T23:31:13.805Z,110.00
2018-02-08T23:33:41.240Z,110.03
